sensor_id;sensor_type;location;lat;lon;timestamp;P1;durP1;ratioP1;P2;durP2;ratioP2
83398;SDS011;73326;43.228;0.106;2024-01-15T00:02:11;27.13;;;15.02;;
83398;SDS011;73326;43.228;0.106;2024-01-15T00:04:37;21.65;;;13.32;;
83398;SDS011;73326;43.228;0.106;2024-01-15T00:07:03;19.77;;;11.68;;
83398;SDS011;73326;43.228;0.106;2024-01-15T00:09:29;17.92;;;11.75;;
83398;SDS011;73326;43.228;0.106;2024-01-15T00:11:55;16.20;;;11.15;;
83398;SDS011;73326;43.228;0.106;2024-01-15T00:14:22;25.00;;;14.57;;
83398;SDS011;73326;43.228;0.106;2024-01-15T00:16:48;20.08;;;13.95;;
83398;SDS011;73326;43.228;0.106;2024-01-15T00:19:19;24.17;;;15.70;;
83398;SDS011;73326;43.228;0.106;2024-01-15T00:21:45;13.52;;;10.80;;
83398;SDS011;73326;43.228;0.106;2024-01-15T00:24:11;16.27;;;11.55;;
83398;SDS011;73326;43.228;0.106;2024-01-15T00:26:37;17.15;;;11.70;;
83398;SDS011;73326;43.228;0.106;2024-01-15T00:29:03;21.38;;;14.57;;
83398;SDS011;73326;43.228;0.106;2024-01-15T00:31:30;26.05;;;16.83;;
83398;SDS011;73326;43.228;0.106;2024-01-15T00:33:56;19.67;;;12.95;;
83398;SDS011;73326;43.228;0.106;2024-01-15T00:36:25;16.15;;;11.20;;
83398;SDS011;73326;43.228;0.106;2024-01-15T00:38:51;17.80;;;12.23;;
83398;SDS011;73326;43.228;0.106;2024-01-15T00:41:18;17.40;;;12.48;;
83398;SDS011;73326;43.228;0.106;2024-01-15T00:43:44;17.23;;;12.52;;
83398;SDS011;73326;43.228;0.106;2024-01-15T00:46:10;17.92;;;11.38;;
83398;SDS011;73326;43.228;0.106;2024-01-15T00:48:37;15.77;;;10.75;;
83398;SDS011;73326;43.228;0.106;2024-01-15T00:51:04;16.88;;;11.40;;
83398;SDS011;73326;43.228;0.106;2024-01-15T00:53:30;15.82;;;10.30;;
83398;SDS011;73326;43.228;0.106;2024-01-15T00:55:56;15.20;;;10.30;;
83398;SDS011;73326;43.228;0.106;2024-01-15T00:58:22;11.30;;;7.85;;
83398;SDS011;73326;43.228;0.106;2024-01-15T01:00:48;10.85;;;7.75;;
83398;SDS011;73326;43.228;0.106;2024-01-15T01:03:14;15.63;;;8.05;;
83398;SDS011;73326;43.228;0.106;2024-01-15T01:05:40;10.82;;;7.75;;
83398;SDS011;73326;43.228;0.106;2024-01-15T01:08:06;13.85;;;8.73;;
83398;SDS011;73326;43.228;0.106;2024-01-15T01:10:32;13.13;;;9.13;;
83398;SDS011;73326;43.228;0.106;2024-01-15T01:12:58;13.50;;;9.30;;
83398;SDS011;73326;43.228;0.106;2024-01-15T01:15:24;14.60;;;9.07;;
83398;SDS011;73326;43.228;0.106;2024-01-15T01:17:50;13.15;;;8.10;;
83398;SDS011;73326;43.228;0.106;2024-01-15T01:20:16;11.77;;;8.05;;
83398;SDS011;73326;43.228;0.106;2024-01-15T01:22:42;11.85;;;7.28;;
83398;SDS011;73326;43.228;0.106;2024-01-15T01:25:08;10.48;;;6.65;;
83398;SDS011;73326;43.228;0.106;2024-01-15T01:27:35;10.25;;;6.95;;
83398;SDS011;73326;43.228;0.106;2024-01-15T01:30:01;10.77;;;7.07;;
83398;SDS011;73326;43.228;0.106;2024-01-15T01:32:27;11.85;;;6.97;;
83398;SDS011;73326;43.228;0.106;2024-01-15T01:34:53;12.52;;;6.45;;
83398;SDS011;73326;43.228;0.106;2024-01-15T01:37:19;9.43;;;6.05;;
83398;SDS011;73326;43.228;0.106;2024-01-15T01:39:45;10.18;;;6.05;;
83398;SDS011;73326;43.228;0.106;2024-01-15T01:42:11;8.02;;;5.22;;
83398;SDS011;73326;43.228;0.106;2024-01-15T01:44:38;7.47;;;4.20;;
83398;SDS011;73326;43.228;0.106;2024-01-15T01:47:04;6.15;;;4.40;;
83398;SDS011;73326;43.228;0.106;2024-01-15T01:49:30;7.18;;;3.88;;
83398;SDS011;73326;43.228;0.106;2024-01-15T01:51:57;8.43;;;3.60;;
83398;SDS011;73326;43.228;0.106;2024-01-15T01:54:24;4.53;;;3.05;;
83398;SDS011;73326;43.228;0.106;2024-01-15T01:56:51;5.57;;;3.47;;
83398;SDS011;73326;43.228;0.106;2024-01-15T01:59:17;5.47;;;3.00;;
83398;SDS011;73326;43.228;0.106;2024-01-15T02:01:44;3.72;;;2.55;;
83398;SDS011;73326;43.228;0.106;2024-01-15T02:04:13;4.60;;;3.22;;
83398;SDS011;73326;43.228;0.106;2024-01-15T02:06:39;4.22;;;2.95;;
83398;SDS011;73326;43.228;0.106;2024-01-15T02:09:05;5.00;;;2.80;;
83398;SDS011;73326;43.228;0.106;2024-01-15T02:11:31;5.78;;;3.10;;
83398;SDS011;73326;43.228;0.106;2024-01-15T02:13:57;5.85;;;3.40;;
83398;SDS011;73326;43.228;0.106;2024-01-15T02:16:23;3.58;;;2.70;;
83398;SDS011;73326;43.228;0.106;2024-01-15T02:18:49;4.00;;;3.10;;
83398;SDS011;73326;43.228;0.106;2024-01-15T02:21:15;6.18;;;2.97;;
83398;SDS011;73326;43.228;0.106;2024-01-15T02:23:41;3.92;;;2.90;;
83398;SDS011;73326;43.228;0.106;2024-01-15T02:26:07;3.30;;;2.50;;
83398;SDS011;73326;43.228;0.106;2024-01-15T02:28:33;4.53;;;2.60;;
83398;SDS011;73326;43.228;0.106;2024-01-15T02:31:00;5.40;;;2.92;;
83398;SDS011;73326;43.228;0.106;2024-01-15T02:33:26;3.63;;;2.70;;
83398;SDS011;73326;43.228;0.106;2024-01-15T02:35:52;3.33;;;2.80;;
83398;SDS011;73326;43.228;0.106;2024-01-15T02:38:18;3.05;;;2.25;;
83398;SDS011;73326;43.228;0.106;2024-01-15T02:40:44;3.38;;;2.40;;
83398;SDS011;73326;43.228;0.106;2024-01-15T02:43:10;3.10;;;2.28;;
83398;SDS011;73326;43.228;0.106;2024-01-15T02:45:38;3.72;;;2.10;;
83398;SDS011;73326;43.228;0.106;2024-01-15T02:48:04;2.83;;;1.67;;
83398;SDS011;73326;43.228;0.106;2024-01-15T02:50:30;2.40;;;1.80;;
83398;SDS011;73326;43.228;0.106;2024-01-15T02:52:56;3.00;;;1.98;;
83398;SDS011;73326;43.228;0.106;2024-01-15T02:55:22;3.40;;;1.50;;
83398;SDS011;73326;43.228;0.106;2024-01-15T02:57:48;3.58;;;1.83;;
83398;SDS011;73326;43.228;0.106;2024-01-15T03:00:15;3.35;;;1.88;;
83398;SDS011;73326;43.228;0.106;2024-01-15T03:02:41;3.65;;;2.03;;
83398;SDS011;73326;43.228;0.106;2024-01-15T03:05:10;3.60;;;2.45;;
83398;SDS011;73326;43.228;0.106;2024-01-15T03:07:36;3.78;;;2.13;;
83398;SDS011;73326;43.228;0.106;2024-01-15T03:10:02;3.80;;;2.65;;
83398;SDS011;73326;43.228;0.106;2024-01-15T03:12:28;4.45;;;2.40;;
83398;SDS011;73326;43.228;0.106;2024-01-15T03:14:54;3.13;;;1.98;;
83398;SDS011;73326;43.228;0.106;2024-01-15T03:17:20;3.35;;;1.92;;
83398;SDS011;73326;43.228;0.106;2024-01-15T03:19:46;2.67;;;1.77;;
83398;SDS011;73326;43.228;0.106;2024-01-15T03:22:14;6.57;;;1.90;;
83398;SDS011;73326;43.228;0.106;2024-01-15T03:24:40;3.92;;;1.85;;
83398;SDS011;73326;43.228;0.106;2024-01-15T03:27:06;6.60;;;1.88;;
83398;SDS011;73326;43.228;0.106;2024-01-15T03:29:32;3.10;;;1.65;;
83398;SDS011;73326;43.228;0.106;2024-01-15T03:31:58;4.38;;;2.72;;
83398;SDS011;73326;43.228;0.106;2024-01-15T03:34:24;4.35;;;2.10;;
83398;SDS011;73326;43.228;0.106;2024-01-15T03:36:51;5.55;;;2.10;;
83398;SDS011;73326;43.228;0.106;2024-01-15T03:39:17;4.65;;;1.95;;
83398;SDS011;73326;43.228;0.106;2024-01-15T03:41:43;2.88;;;1.90;;
83398;SDS011;73326;43.228;0.106;2024-01-15T03:44:09;2.75;;;1.98;;
83398;SDS011;73326;43.228;0.106;2024-01-15T03:46:35;4.07;;;2.00;;
83398;SDS011;73326;43.228;0.106;2024-01-15T03:49:01;3.13;;;1.92;;
83398;SDS011;73326;43.228;0.106;2024-01-15T03:51:27;5.53;;;2.13;;
83398;SDS011;73326;43.228;0.106;2024-01-15T03:53:53;3.40;;;2.08;;
83398;SDS011;73326;43.228;0.106;2024-01-15T03:56:19;1.95;;;1.73;;
83398;SDS011;73326;43.228;0.106;2024-01-15T03:58:45;4.18;;;1.85;;
83398;SDS011;73326;43.228;0.106;2024-01-15T04:01:11;4.35;;;2.17;;
83398;SDS011;73326;43.228;0.106;2024-01-15T04:03:37;2.95;;;1.90;;
83398;SDS011;73326;43.228;0.106;2024-01-15T04:06:04;3.92;;;2.05;;
83398;SDS011;73326;43.228;0.106;2024-01-15T04:08:30;3.58;;;2.00;;
83398;SDS011;73326;43.228;0.106;2024-01-15T04:10:56;2.25;;;1.75;;
83398;SDS011;73326;43.228;0.106;2024-01-15T04:13:22;2.65;;;1.70;;
83398;SDS011;73326;43.228;0.106;2024-01-15T04:15:48;3.92;;;2.40;;
83398;SDS011;73326;43.228;0.106;2024-01-15T04:18:15;4.63;;;2.30;;
83398;SDS011;73326;43.228;0.106;2024-01-15T04:20:42;3.35;;;1.83;;
83398;SDS011;73326;43.228;0.106;2024-01-15T04:23:08;7.53;;;2.03;;
83398;SDS011;73326;43.228;0.106;2024-01-15T04:25:34;2.25;;;1.80;;
83398;SDS011;73326;43.228;0.106;2024-01-15T04:28:00;4.75;;;3.05;;
83398;SDS011;73326;43.228;0.106;2024-01-15T04:30:26;5.00;;;2.95;;
83398;SDS011;73326;43.228;0.106;2024-01-15T04:32:52;4.47;;;2.75;;
83398;SDS011;73326;43.228;0.106;2024-01-15T04:35:18;5.90;;;2.90;;
83398;SDS011;73326;43.228;0.106;2024-01-15T04:37:44;6.03;;;3.15;;
83398;SDS011;73326;43.228;0.106;2024-01-15T04:40:10;8.02;;;3.10;;
83398;SDS011;73326;43.228;0.106;2024-01-15T04:42:36;5.25;;;3.13;;
83398;SDS011;73326;43.228;0.106;2024-01-15T04:45:03;5.30;;;3.38;;
83398;SDS011;73326;43.228;0.106;2024-01-15T04:47:29;5.05;;;3.20;;
83398;SDS011;73326;43.228;0.106;2024-01-15T04:49:55;7.07;;;3.40;;
83398;SDS011;73326;43.228;0.106;2024-01-15T04:52:21;7.65;;;2.80;;
83398;SDS011;73326;43.228;0.106;2024-01-15T04:54:47;4.68;;;2.92;;
83398;SDS011;73326;43.228;0.106;2024-01-15T04:57:13;5.70;;;3.20;;
83398;SDS011;73326;43.228;0.106;2024-01-15T04:59:39;7.18;;;3.30;;
83398;SDS011;73326;43.228;0.106;2024-01-15T05:02:05;5.47;;;3.05;;
83398;SDS011;73326;43.228;0.106;2024-01-15T05:04:31;7.35;;;2.90;;
83398;SDS011;73326;43.228;0.106;2024-01-15T05:06:58;3.70;;;2.60;;
83398;SDS011;73326;43.228;0.106;2024-01-15T05:09:24;4.47;;;2.40;;
83398;SDS011;73326;43.228;0.106;2024-01-15T05:11:50;5.30;;;3.28;;
83398;SDS011;73326;43.228;0.106;2024-01-15T05:14:16;8.75;;;5.78;;
83398;SDS011;73326;43.228;0.106;2024-01-15T05:16:48;10.85;;;6.93;;
83398;SDS011;73326;43.228;0.106;2024-01-15T05:19:15;13.82;;;7.60;;
83398;SDS011;73326;43.228;0.106;2024-01-15T05:21:41;9.07;;;5.57;;
83398;SDS011;73326;43.228;0.106;2024-01-15T05:24:07;6.68;;;4.35;;
83398;SDS011;73326;43.228;0.106;2024-01-15T05:26:34;5.78;;;4.07;;
83398;SDS011;73326;43.228;0.106;2024-01-15T05:29:00;4.60;;;3.83;;
83398;SDS011;73326;43.228;0.106;2024-01-15T05:31:26;7.60;;;4.35;;
83398;SDS011;73326;43.228;0.106;2024-01-15T05:33:52;7.15;;;3.55;;
83398;SDS011;73326;43.228;0.106;2024-01-15T05:36:18;4.95;;;3.22;;
83398;SDS011;73326;43.228;0.106;2024-01-15T05:38:44;3.67;;;3.03;;
83398;SDS011;73326;43.228;0.106;2024-01-15T05:41:10;5.07;;;3.75;;
83398;SDS011;73326;43.228;0.106;2024-01-15T05:43:36;5.43;;;3.13;;
83398;SDS011;73326;43.228;0.106;2024-01-15T05:46:02;7.25;;;4.40;;
83398;SDS011;73326;43.228;0.106;2024-01-15T05:48:28;8.48;;;4.90;;
83398;SDS011;73326;43.228;0.106;2024-01-15T05:50:54;6.32;;;4.55;;
83398;SDS011;73326;43.228;0.106;2024-01-15T05:53:20;8.70;;;4.05;;
83398;SDS011;73326;43.228;0.106;2024-01-15T05:55:46;5.40;;;3.50;;
83398;SDS011;73326;43.228;0.106;2024-01-15T05:58:12;4.60;;;3.00;;
83398;SDS011;73326;43.228;0.106;2024-01-15T06:00:38;6.88;;;3.42;;
83398;SDS011;73326;43.228;0.106;2024-01-15T06:03:04;3.97;;;3.00;;
83398;SDS011;73326;43.228;0.106;2024-01-15T06:05:30;4.63;;;2.90;;
83398;SDS011;73326;43.228;0.106;2024-01-15T06:07:56;4.82;;;2.97;;
83398;SDS011;73326;43.228;0.106;2024-01-15T06:10:22;3.50;;;2.80;;
83398;SDS011;73326;43.228;0.106;2024-01-15T06:12:48;3.20;;;2.72;;
83398;SDS011;73326;43.228;0.106;2024-01-15T06:15:14;3.70;;;3.00;;
83398;SDS011;73326;43.228;0.106;2024-01-15T06:17:40;5.03;;;2.80;;
83398;SDS011;73326;43.228;0.106;2024-01-15T06:20:07;4.78;;;2.78;;
83398;SDS011;73326;43.228;0.106;2024-01-15T06:22:34;3.10;;;2.78;;
83398;SDS011;73326;43.228;0.106;2024-01-15T06:25:01;2.17;;;1.98;;
83398;SDS011;73326;43.228;0.106;2024-01-15T06:27:28;3.17;;;2.08;;
83398;SDS011;73326;43.228;0.106;2024-01-15T06:29:54;2.58;;;1.92;;
83398;SDS011;73326;43.228;0.106;2024-01-15T06:32:21;3.40;;;2.17;;
83398;SDS011;73326;43.228;0.106;2024-01-15T06:34:47;2.00;;;1.63;;
83398;SDS011;73326;43.228;0.106;2024-01-15T06:37:13;1.70;;;1.50;;
83398;SDS011;73326;43.228;0.106;2024-01-15T06:39:39;2.20;;;1.42;;
83398;SDS011;73326;43.228;0.106;2024-01-15T06:42:05;4.65;;;1.38;;
83398;SDS011;73326;43.228;0.106;2024-01-15T06:44:31;2.08;;;1.27;;
83398;SDS011;73326;43.228;0.106;2024-01-15T06:46:57;0.90;;;0.90;;
83398;SDS011;73326;43.228;0.106;2024-01-15T06:49:27;3.80;;;1.60;;
83398;SDS011;73326;43.228;0.106;2024-01-15T06:51:53;1.50;;;1.00;;
83398;SDS011;73326;43.228;0.106;2024-01-15T06:54:19;2.25;;;2.05;;
83398;SDS011;73326;43.228;0.106;2024-01-15T06:56:45;4.95;;;2.00;;
83398;SDS011;73326;43.228;0.106;2024-01-15T06:59:11;2.35;;;1.40;;
83398;SDS011;73326;43.228;0.106;2024-01-15T07:01:37;3.25;;;1.80;;
83398;SDS011;73326;43.228;0.106;2024-01-15T07:04:03;4.75;;;3.45;;
83398;SDS011;73326;43.228;0.106;2024-01-15T07:06:29;3.22;;;2.03;;
83398;SDS011;73326;43.228;0.106;2024-01-15T07:08:55;2.08;;;1.52;;
83398;SDS011;73326;43.228;0.106;2024-01-15T07:11:22;2.38;;;2.13;;
83398;SDS011;73326;43.228;0.106;2024-01-15T07:13:48;4.05;;;3.13;;
83398;SDS011;73326;43.228;0.106;2024-01-15T07:16:14;2.92;;;2.40;;
83398;SDS011;73326;43.228;0.106;2024-01-15T07:18:40;2.97;;;2.30;;
83398;SDS011;73326;43.228;0.106;2024-01-15T07:21:06;8.10;;;6.72;;
83398;SDS011;73326;43.228;0.106;2024-01-15T07:23:32;11.77;;;8.93;;
83398;SDS011;73326;43.228;0.106;2024-01-15T07:25:58;6.75;;;4.70;;
83398;SDS011;73326;43.228;0.106;2024-01-15T07:28:25;6.65;;;4.97;;
83398;SDS011;73326;43.228;0.106;2024-01-15T07:30:51;6.32;;;5.10;;
83398;SDS011;73326;43.228;0.106;2024-01-15T07:33:17;6.30;;;5.47;;
83398;SDS011;73326;43.228;0.106;2024-01-15T07:35:43;8.25;;;6.80;;
83398;SDS011;73326;43.228;0.106;2024-01-15T07:38:09;13.38;;;9.52;;
83398;SDS011;73326;43.228;0.106;2024-01-15T07:40:36;12.77;;;10.00;;
83398;SDS011;73326;43.228;0.106;2024-01-15T07:43:02;13.50;;;10.27;;
83398;SDS011;73326;43.228;0.106;2024-01-15T07:45:29;11.13;;;8.60;;
83398;SDS011;73326;43.228;0.106;2024-01-15T07:47:56;9.32;;;6.88;;
83398;SDS011;73326;43.228;0.106;2024-01-15T07:50:22;7.53;;;6.13;;
83398;SDS011;73326;43.228;0.106;2024-01-15T07:52:48;6.90;;;5.97;;
83398;SDS011;73326;43.228;0.106;2024-01-15T07:55:14;6.43;;;5.38;;
83398;SDS011;73326;43.228;0.106;2024-01-15T07:57:40;7.60;;;5.13;;
83398;SDS011;73326;43.228;0.106;2024-01-15T08:00:06;8.05;;;5.18;;
83398;SDS011;73326;43.228;0.106;2024-01-15T08:02:34;7.35;;;5.57;;
83398;SDS011;73326;43.228;0.106;2024-01-15T08:05:00;6.57;;;5.03;;
83398;SDS011;73326;43.228;0.106;2024-01-15T08:07:26;6.55;;;5.80;;
83398;SDS011;73326;43.228;0.106;2024-01-15T08:09:52;7.55;;;5.63;;
83398;SDS011;73326;43.228;0.106;2024-01-15T08:12:18;9.00;;;5.80;;
83398;SDS011;73326;43.228;0.106;2024-01-15T08:14:44;11.40;;;7.80;;
83398;SDS011;73326;43.228;0.106;2024-01-15T08:17:10;15.38;;;11.00;;
83398;SDS011;73326;43.228;0.106;2024-01-15T08:19:36;14.27;;;9.73;;
83398;SDS011;73326;43.228;0.106;2024-01-15T08:22:06;13.48;;;8.57;;
83398;SDS011;73326;43.228;0.106;2024-01-15T08:24:32;12.70;;;8.38;;
83398;SDS011;73326;43.228;0.106;2024-01-15T08:26:58;14.50;;;7.63;;
83398;SDS011;73326;43.228;0.106;2024-01-15T08:29:24;9.52;;;6.90;;
83398;SDS011;73326;43.228;0.106;2024-01-15T08:31:50;13.02;;;6.65;;
83398;SDS011;73326;43.228;0.106;2024-01-15T08:34:16;21.15;;;13.30;;
83398;SDS011;73326;43.228;0.106;2024-01-15T08:36:42;22.02;;;14.13;;
83398;SDS011;73326;43.228;0.106;2024-01-15T08:39:08;18.17;;;12.10;;
83398;SDS011;73326;43.228;0.106;2024-01-15T08:41:34;18.05;;;13.40;;
83398;SDS011;73326;43.228;0.106;2024-01-15T08:44:00;19.80;;;12.70;;
83398;SDS011;73326;43.228;0.106;2024-01-15T08:46:27;8.98;;;6.57;;
83398;SDS011;73326;43.228;0.106;2024-01-15T08:48:53;7.65;;;4.65;;
83398;SDS011;73326;43.228;0.106;2024-01-15T08:51:19;5.35;;;4.68;;
83398;SDS011;73326;43.228;0.106;2024-01-15T08:53:46;7.18;;;4.90;;
83398;SDS011;73326;43.228;0.106;2024-01-15T08:56:12;3.67;;;2.75;;
83398;SDS011;73326;43.228;0.106;2024-01-15T08:58:38;5.22;;;3.15;;
83398;SDS011;73326;43.228;0.106;2024-01-15T09:01:04;3.58;;;3.00;;
83398;SDS011;73326;43.228;0.106;2024-01-15T09:03:30;3.53;;;2.67;;
83398;SDS011;73326;43.228;0.106;2024-01-15T09:05:57;4.15;;;2.70;;
83398;SDS011;73326;43.228;0.106;2024-01-15T09:08:23;5.25;;;4.20;;
83398;SDS011;73326;43.228;0.106;2024-01-15T09:10:49;6.25;;;4.93;;
83398;SDS011;73326;43.228;0.106;2024-01-15T09:13:15;7.80;;;3.40;;
83398;SDS011;73326;43.228;0.106;2024-01-15T09:15:42;3.42;;;3.08;;
83398;SDS011;73326;43.228;0.106;2024-01-15T09:18:08;5.65;;;3.10;;
83398;SDS011;73326;43.228;0.106;2024-01-15T09:20:34;6.13;;;4.10;;
83398;SDS011;73326;43.228;0.106;2024-01-15T09:23:01;9.57;;;4.65;;
83398;SDS011;73326;43.228;0.106;2024-01-15T09:25:27;10.52;;;5.05;;
83398;SDS011;73326;43.228;0.106;2024-01-15T09:27:54;7.68;;;4.10;;
83398;SDS011;73326;43.228;0.106;2024-01-15T09:30:20;7.47;;;4.65;;
83398;SDS011;73326;43.228;0.106;2024-01-15T09:32:46;8.77;;;4.03;;
83398;SDS011;73326;43.228;0.106;2024-01-15T09:35:12;9.57;;;3.70;;
83398;SDS011;73326;43.228;0.106;2024-01-15T09:37:39;4.65;;;3.47;;
83398;SDS011;73326;43.228;0.106;2024-01-15T09:40:05;5.72;;;3.90;;
83398;SDS011;73326;43.228;0.106;2024-01-15T09:42:31;5.13;;;3.20;;
83398;SDS011;73326;43.228;0.106;2024-01-15T09:44:58;5.10;;;3.42;;
83398;SDS011;73326;43.228;0.106;2024-01-15T09:47:24;4.45;;;3.10;;
83398;SDS011;73326;43.228;0.106;2024-01-15T09:49:50;4.13;;;3.20;;
83398;SDS011;73326;43.228;0.106;2024-01-15T09:52:16;5.47;;;3.05;;
83398;SDS011;73326;43.228;0.106;2024-01-15T09:54:45;5.07;;;3.28;;
83398;SDS011;73326;43.228;0.106;2024-01-15T09:57:12;4.68;;;3.25;;
83398;SDS011;73326;43.228;0.106;2024-01-15T09:59:38;3.67;;;2.80;;
83398;SDS011;73326;43.228;0.106;2024-01-15T10:02:06;4.38;;;2.97;;
83398;SDS011;73326;43.228;0.106;2024-01-15T10:04:33;8.95;;;6.22;;
83398;SDS011;73326;43.228;0.106;2024-01-15T10:06:59;8.10;;;6.20;;
83398;SDS011;73326;43.228;0.106;2024-01-15T10:09:26;11.63;;;5.78;;
83398;SDS011;73326;43.228;0.106;2024-01-15T10:11:52;6.20;;;4.18;;
83398;SDS011;73326;43.228;0.106;2024-01-15T10:14:19;7.32;;;4.60;;
83398;SDS011;73326;43.228;0.106;2024-01-15T10:16:45;7.47;;;4.72;;
83398;SDS011;73326;43.228;0.106;2024-01-15T10:19:11;9.88;;;4.30;;
83398;SDS011;73326;43.228;0.106;2024-01-15T10:21:37;7.15;;;4.90;;
83398;SDS011;73326;43.228;0.106;2024-01-15T10:24:04;11.48;;;5.30;;
83398;SDS011;73326;43.228;0.106;2024-01-15T10:26:30;8.32;;;5.25;;
83398;SDS011;73326;43.228;0.106;2024-01-15T10:28:58;9.13;;;5.97;;
83398;SDS011;73326;43.228;0.106;2024-01-15T10:31:25;8.23;;;5.75;;
83398;SDS011;73326;43.228;0.106;2024-01-15T10:33:51;10.68;;;6.50;;
83398;SDS011;73326;43.228;0.106;2024-01-15T10:36:17;9.23;;;6.07;;
83398;SDS011;73326;43.228;0.106;2024-01-15T10:38:43;9.98;;;7.15;;
83398;SDS011;73326;43.228;0.106;2024-01-15T10:41:10;10.88;;;7.43;;
83398;SDS011;73326;43.228;0.106;2024-01-15T10:43:36;21.88;;;15.80;;
83398;SDS011;73326;43.228;0.106;2024-01-15T10:46:02;12.88;;;8.75;;
83398;SDS011;73326;43.228;0.106;2024-01-15T10:48:29;12.05;;;8.90;;
83398;SDS011;73326;43.228;0.106;2024-01-15T10:50:56;13.65;;;9.95;;
83398;SDS011;73326;43.228;0.106;2024-01-15T10:53:25;11.25;;;9.75;;
83398;SDS011;73326;43.228;0.106;2024-01-15T10:55:52;9.73;;;7.55;;
83398;SDS011;73326;43.228;0.106;2024-01-15T10:58:19;8.75;;;6.43;;
83398;SDS011;73326;43.228;0.106;2024-01-15T11:00:46;8.02;;;5.80;;
83398;SDS011;73326;43.228;0.106;2024-01-15T11:03:12;5.72;;;3.95;;
83398;SDS011;73326;43.228;0.106;2024-01-15T11:05:41;5.10;;;3.13;;
83398;SDS011;73326;43.228;0.106;2024-01-15T11:08:11;3.65;;;3.13;;
83398;SDS011;73326;43.228;0.106;2024-01-15T11:10:47;4.15;;;3.40;;
83398;SDS011;73326;43.228;0.106;2024-01-15T11:15:59;5.93;;;4.45;;
83398;SDS011;73326;43.228;0.106;2024-01-15T11:18:29;3.17;;;2.70;;
83398;SDS011;73326;43.228;0.106;2024-01-15T11:26:31;2.15;;;1.20;;
83398;SDS011;73326;43.228;0.106;2024-01-15T11:28:59;2.90;;;2.10;;
83398;SDS011;73326;43.228;0.106;2024-01-15T11:34:07;3.42;;;2.55;;
83398;SDS011;73326;43.228;0.106;2024-01-15T11:42:02;3.28;;;2.28;;
83398;SDS011;73326;43.228;0.106;2024-01-15T11:44:29;4.38;;;3.28;;
83398;SDS011;73326;43.228;0.106;2024-01-15T11:46:59;2.53;;;2.30;;
83398;SDS011;73326;43.228;0.106;2024-01-15T11:52:12;2.67;;;2.40;;
83398;SDS011;73326;43.228;0.106;2024-01-15T11:54:41;2.33;;;1.60;;
83398;SDS011;73326;43.228;0.106;2024-01-15T11:57:09;0.95;;;0.93;;
83398;SDS011;73326;43.228;0.106;2024-01-15T11:59:35;1.23;;;1.13;;
83398;SDS011;73326;43.228;0.106;2024-01-15T12:02:02;1.33;;;1.23;;
83398;SDS011;73326;43.228;0.106;2024-01-15T12:04:28;1.88;;;1.65;;
83398;SDS011;73326;43.228;0.106;2024-01-15T12:06:54;2.95;;;1.30;;
83398;SDS011;73326;43.228;0.106;2024-01-15T12:09:20;1.80;;;1.30;;
83398;SDS011;73326;43.228;0.106;2024-01-15T12:11:48;1.65;;;1.30;;
83398;SDS011;73326;43.228;0.106;2024-01-15T12:14:16;1.67;;;1.50;;
83398;SDS011;73326;43.228;0.106;2024-01-15T12:16:44;2.13;;;1.52;;
83398;SDS011;73326;43.228;0.106;2024-01-15T12:19:10;2.80;;;1.80;;
83398;SDS011;73326;43.228;0.106;2024-01-15T12:21:38;2.40;;;1.50;;
83398;SDS011;73326;43.228;0.106;2024-01-15T12:24:06;2.75;;;1.73;;
83398;SDS011;73326;43.228;0.106;2024-01-15T12:26:32;3.25;;;2.00;;
83398;SDS011;73326;43.228;0.106;2024-01-15T12:29:01;3.33;;;1.90;;
83398;SDS011;73326;43.228;0.106;2024-01-15T12:31:27;3.45;;;2.17;;
83398;SDS011;73326;43.228;0.106;2024-01-15T12:33:53;2.72;;;2.00;;
83398;SDS011;73326;43.228;0.106;2024-01-15T12:36:22;3.25;;;2.28;;
83398;SDS011;73326;43.228;0.106;2024-01-15T12:38:48;2.83;;;1.90;;
83398;SDS011;73326;43.228;0.106;2024-01-15T12:41:14;1.65;;;1.55;;
83398;SDS011;73326;43.228;0.106;2024-01-15T12:43:40;1.90;;;1.40;;
83398;SDS011;73326;43.228;0.106;2024-01-15T12:46:06;2.35;;;1.60;;
83398;SDS011;73326;43.228;0.106;2024-01-15T12:48:33;1.85;;;1.58;;
83398;SDS011;73326;43.228;0.106;2024-01-15T12:51:00;2.03;;;1.27;;
83398;SDS011;73326;43.228;0.106;2024-01-15T12:53:26;2.15;;;1.45;;
83398;SDS011;73326;43.228;0.106;2024-01-15T12:55:52;1.20;;;1.10;;
83398;SDS011;73326;43.228;0.106;2024-01-15T12:58:18;5.50;;;1.20;;
83398;SDS011;73326;43.228;0.106;2024-01-15T13:00:44;2.50;;;1.50;;
83398;SDS011;73326;43.228;0.106;2024-01-15T13:03:11;4.07;;;1.30;;
83398;SDS011;73326;43.228;0.106;2024-01-15T13:05:38;1.73;;;1.08;;
83398;SDS011;73326;43.228;0.106;2024-01-15T13:08:05;1.45;;;1.35;;
83398;SDS011;73326;43.228;0.106;2024-01-15T13:10:31;1.58;;;1.02;;
83398;SDS011;73326;43.228;0.106;2024-01-15T13:12:57;1.25;;;0.90;;
83398;SDS011;73326;43.228;0.106;2024-01-15T13:15:23;2.38;;;1.10;;
83398;SDS011;73326;43.228;0.106;2024-01-15T13:17:49;2.05;;;1.10;;
83398;SDS011;73326;43.228;0.106;2024-01-15T13:20:15;1.85;;;1.20;;
83398;SDS011;73326;43.228;0.106;2024-01-15T13:22:41;0.90;;;0.90;;
83398;SDS011;73326;43.228;0.106;2024-01-15T13:25:08;1.70;;;0.80;;
83398;SDS011;73326;43.228;0.106;2024-01-15T13:27:36;1.48;;;0.80;;
83398;SDS011;73326;43.228;0.106;2024-01-15T13:30:02;1.10;;;0.98;;
83398;SDS011;73326;43.228;0.106;2024-01-15T13:32:28;1.08;;;0.98;;
83398;SDS011;73326;43.228;0.106;2024-01-15T13:34:55;1.40;;;1.30;;
83398;SDS011;73326;43.228;0.106;2024-01-15T13:37:21;1.67;;;1.10;;
83398;SDS011;73326;43.228;0.106;2024-01-15T13:39:49;1.10;;;1.00;;
83398;SDS011;73326;43.228;0.106;2024-01-15T13:42:17;1.02;;;1.00;;
83398;SDS011;73326;43.228;0.106;2024-01-15T13:44:43;2.58;;;1.40;;
83398;SDS011;73326;43.228;0.106;2024-01-15T13:47:09;2.92;;;1.20;;
83398;SDS011;73326;43.228;0.106;2024-01-15T13:49:35;2.00;;;1.50;;
83398;SDS011;73326;43.228;0.106;2024-01-15T13:52:02;2.58;;;1.63;;
83398;SDS011;73326;43.228;0.106;2024-01-15T13:54:29;2.83;;;1.80;;
83398;SDS011;73326;43.228;0.106;2024-01-15T13:56:55;2.78;;;1.42;;
83398;SDS011;73326;43.228;0.106;2024-01-15T13:59:21;3.22;;;1.85;;
83398;SDS011;73326;43.228;0.106;2024-01-15T14:01:48;3.63;;;1.60;;
83398;SDS011;73326;43.228;0.106;2024-01-15T14:04:14;2.63;;;1.48;;
83398;SDS011;73326;43.228;0.106;2024-01-15T14:06:40;1.40;;;1.30;;
83398;SDS011;73326;43.228;0.106;2024-01-15T14:09:06;2.10;;;1.77;;
83398;SDS011;73326;43.228;0.106;2024-01-15T14:11:35;1.98;;;1.45;;
83398;SDS011;73326;43.228;0.106;2024-01-15T14:14:01;2.08;;;1.60;;
83398;SDS011;73326;43.228;0.106;2024-01-15T14:16:27;2.33;;;1.88;;
83398;SDS011;73326;43.228;0.106;2024-01-15T14:18:53;1.75;;;1.50;;
83398;SDS011;73326;43.228;0.106;2024-01-15T14:21:19;3.63;;;1.88;;
83398;SDS011;73326;43.228;0.106;2024-01-15T14:23:45;5.60;;;3.85;;
83398;SDS011;73326;43.228;0.106;2024-01-15T14:26:11;7.95;;;5.85;;
83398;SDS011;73326;43.228;0.106;2024-01-15T14:28:37;6.78;;;5.22;;
83398;SDS011;73326;43.228;0.106;2024-01-15T14:31:03;7.80;;;4.57;;
83398;SDS011;73326;43.228;0.106;2024-01-15T14:33:30;4.30;;;2.78;;
83398;SDS011;73326;43.228;0.106;2024-01-15T14:35:56;3.25;;;2.80;;
83398;SDS011;73326;43.228;0.106;2024-01-15T14:38:22;2.95;;;2.50;;
83398;SDS011;73326;43.228;0.106;2024-01-15T14:40:49;5.28;;;2.40;;
83398;SDS011;73326;43.228;0.106;2024-01-15T14:43:15;3.65;;;2.55;;
83398;SDS011;73326;43.228;0.106;2024-01-15T14:45:41;6.07;;;3.28;;
83398;SDS011;73326;43.228;0.106;2024-01-15T14:48:08;4.90;;;3.33;;
83398;SDS011;73326;43.228;0.106;2024-01-15T14:50:34;6.82;;;2.92;;
83398;SDS011;73326;43.228;0.106;2024-01-15T14:53:00;11.35;;;3.28;;
83398;SDS011;73326;43.228;0.106;2024-01-15T14:55:26;4.55;;;2.90;;
83398;SDS011;73326;43.228;0.106;2024-01-15T14:57:52;3.97;;;2.72;;